Data for 12/13/2014

Time Sea-Level Adjusted Pressure Absolute Pressure Temperature Relative Humidity Dew Point   
(mb) (inHg) (mb) (inHg) (C) (F) (%) (C) (F)
00:05 1010 29.83 839 24.78 11.7 53 25 -7.5 18.6
00:10 1010 29.83 839 24.78 11.4 52.6 27 -7 19.5
00:15 1010 29.83 839 24.78 10.9 51.6 28 -7 19.3
00:20 1010 29.83 839 24.78 10.7 51.2 29 -6.6 20
00:25 1010 29.83 839 24.78 10.4 50.7 28 -7.2 19
00:30 1010 29.83 839 24.78 11 51.8 28 -6.6 20
00:35 1010 29.83 839 24.78 11 51.9 28 -6.7 19.9
00:40 1010 29.83 839 24.78 11.3 52.3 28 -6.4 20.5
00:45 1010 29.83 839 24.78 11.3 52.4 29 -6.2 20.8
00:50 1010 29.83 839 24.78 10.6 51 28 -7.1 19.2
00:55 1010 29.83 839 24.78 9 48.2 31 -7.4 18.6
01:00 1010 29.83 839 24.78 8.5 47.3 32 -7.3 18.8
01:05 1010 29.83 839 24.78 8.7 47.7 31 -7.4 18.8
01:10 1010 29.83 839 24.78 9 48.2 31 -7.2 19
01:15 1010 29.83 839 24.78 9.2 48.5 30 -7.5 18.5
01:20 1010 29.83 839 24.78 9.3 48.8 30 -7.2 19
01:25 1010 29.83 839 24.78 8.9 48 31 -7.5 18.5
01:30 1010 29.83 839 24.78 8.6 47.6 31 -7.5 18.4
01:35 1010 29.83 839 24.78 8.7 47.6 31 -7.6 18.3
01:40 1010 29.83 839 24.78 8.6 47.5 32 -7.2 19.1
01:45 1010 29.83 839 24.78 8.8 47.8 31 -7.2 19
01:50 1010 29.83 839 24.78 9.1 48.3 32 -6.9 19.5
01:55 1010 29.83 839 24.78 8.9 48 32 -7 19.4
02:00 1010 29.83 839 24.78 9.4 48.9 31 -6.9 19.7
02:05 1010 29.83 839 24.78 9.5 49 31 -6.8 19.8
02:10 1010 29.83 839 24.78 9.4 48.9 32 -6.4 20.5
02:15 1010 29.83 839 24.78 9.4 48.8 32 -6.3 20.6
02:20 1010 29.83 839 24.78 9.4 48.8 33 -6.1 21.1
02:25 1010 29.83 839 24.78 9.5 49.2 34 -5.7 21.7
02:30 1010 29.83 839 24.78 9.3 48.7 36 -4.9 23.2
02:35 1009 29.8 839 24.78 9.2 48.6 37 -4.6 23.7
02:40 1009 29.8 839 24.78 9.6 49.2 36 -4.7 23.6
02:45 1009 29.8 839 24.78 8.7 47.6 37 -5 23
02:50 1009 29.8 839 24.78 7.8 46.1 38 -5.8 21.6
02:55 1009 29.8 839 24.78 7.9 46.2 36 -6.4 20.6
03:00 1009 29.8 839 24.78 7.9 46.1 36 -6.1 21
03:05 1009 29.8 839 24.78 8 46.4 36 -6.1 21
03:10 1010 29.83 839 24.78 7.7 45.9 37 -6.2 20.8
03:15 1010 29.83 839 24.78 7.4 45.3 38 -6.1 21
03:20 1010 29.83 839 24.78 7.4 45.4 37 -6.1 21
03:25 1010 29.83 839 24.78 7.7 45.8 38 -5.9 21.4
03:30 1010 29.83 839 24.78 7.4 45.3 39 -5.7 21.7
03:35 1010 29.83 839 24.78 7.4 45.3 37 -6.3 20.6
03:40 1010 29.83 839 24.78 8.1 46.5 36 -6.2 20.9
03:45 1010 29.83 839 24.78 8.2 46.7 36 -6.2 20.9
03:50 1010 29.83 839 24.78 7.8 46.1 36 -6.5 20.4
03:55 1009 29.8 839 24.78 8.1 46.5 38 -5.4 22.2
04:00 1010 29.83 839 24.78 7.1 44.7 39 -5.9 21.4
04:05 1010 29.83 839 24.78 7.7 45.8 36 -6.4 20.4
04:10 1009 29.8 839 24.78 7.5 45.5 39 -5.7 21.8
04:15 1009 29.8 838 24.75 7.1 44.8 38 -6.1 21.1
04:20 1009 29.8 839 24.78 7 44.7 39 -5.8 21.5
04:25 1009 29.8 839 24.78 6.9 44.5 39 -6 21.2
04:30 1009 29.8 839 24.78 7.3 45.1 38 -5.9 21.3
04:35 1009 29.8 839 24.78 7.6 45.7 37 -6.2 20.8
04:40 1009 29.8 839 24.78 7.8 46.1 38 -5.7 21.8
04:45 1009 29.8 838 24.75 7.2 44.9 41 -5.1 22.9
04:50 1009 29.8 838 24.75 6.5 43.8 41 -5.8 21.6
04:55 1009 29.8 839 24.78 7 44.7 40 -5.7 21.7
05:00 1009 29.8 839 24.78 6.8 44.3 41 -5.4 22.3
05:05 1009 29.8 839 24.78 7.1 44.7 40 -5.6 21.9
05:10 1009 29.8 839 24.78 7.1 44.8 41 -5.3 22.4
05:15 1009 29.8 839 24.78 7 44.5 40 -5.6 21.8
05:20 1009 29.8 839 24.78 7.1 44.7 42 -4.9 23.1
05:25 1009 29.8 839 24.78 6.3 43.4 44 -5.1 22.8
05:30 1009 29.8 839 24.78 6.1 43 43 -5.5 22
05:35 1009 29.8 839 24.78 6.3 43.3 44 -5 23
05:40 1010 29.83 839 24.78 6.1 43 44 -5.3 22.5
05:45 1010 29.83 839 24.78 6.8 44.3 41 -5.5 22.1
05:50 1010 29.83 839 24.78 7.2 45 41 -5.2 22.7
05:55 1009 29.8 839 24.78 7.3 45.1 41 -5 23
06:00 1009 29.8 839 24.78 7 44.6 42 -5 23
06:05 1009 29.8 839 24.78 6.9 44.4 42 -5.1 22.9
06:10 1009 29.8 839 24.78 6.9 44.4 44 -4.5 24
06:15 1010 29.83 839 24.78 5.5 41.8 50 -4.2 24.4
06:20 1010 29.83 839 24.78 5.7 42.2 46 -5 23
06:25 1009 29.8 839 24.78 6.3 43.3 44 -5 22.9
06:30 1009 29.8 839 24.78 5.9 42.7 48 -4.3 24.3
06:35 1009 29.8 839 24.78 5.7 42.3 48 -4.5 23.9
06:40 1009 29.8 839 24.78 5.1 41.2 48 -5 23.1
06:45 1009 29.8 839 24.78 6.1 43 49 -3.8 25.2
06:50 1010 29.83 839 24.78 5.6 42 49 -4.2 24.4
06:55 1010 29.83 839 24.78 5.2 41.4 52 -3.9 25
07:00 1010 29.83 839 24.78 4.6 40.3 53 -4.1 24.7
07:05 1010 29.83 839 24.78 4.2 39.6 54 -4.2 24.4
07:10 1010 29.83 839 24.78 4.7 40.4 53 -4 24.8
07:15 1010 29.83 839 24.78 4.1 39.3 56 -4 24.7
07:20 1010 29.83 839 24.78 3.9 39 59 -3.4 25.8
07:25 1010 29.83 839 24.78 5.2 41.4 51 -4.1 24.6
07:30 1010 29.83 839 24.78 4.5 40.2 54 -3.9 25
07:35 1010 29.83 839 24.78 4.1 39.4 56 -3.8 25.1
07:40 1010 29.83 839 24.78 3.7 38.6 57 -4 24.8
07:45 1010 29.83 839 24.78 3.5 38.4 59 -3.8 25.2
07:50 1010 29.83 839 24.78 3.3 37.9 60 -3.9 25.1
07:55 1010 29.83 839 24.78 3.3 37.9 60 -3.8 25.2
08:00 1010 29.83 839 24.78 3.4 38.1 58 -4.2 24.5
08:05 1010 29.83 839 24.78 3.3 37.9 58 -4.1 24.5
08:10 1010 29.83 839 24.78 3.2 37.8 59 -4 24.7
08:15 1010 29.83 839 24.78 3.5 38.2 57 -4.4 24.1
08:20 1010 29.83 840 24.81 3.7 38.6 55 -4.5 23.9
08:25 1010 29.83 840 24.81 4.2 39.6 54 -4.2 24.5
08:30 1010 29.83 840 24.81 4.1 39.4 54 -4.2 24.4
08:35 1010 29.83 840 24.81 4 39.1 55 -4.3 24.3
08:40 1010 29.83 840 24.81 4 39.2 55 -4.1 24.6
08:45 1010 29.83 840 24.81 3.6 38.5 56 -4.3 24.3
08:50 1010 29.83 840 24.81 3.7 38.7 56 -4.3 24.3
08:55 1010 29.83 840 24.81 3.9 39 55 -4.4 24.1
09:00 1010 29.83 840 24.81 4 39.2 55 -4.2 24.4
09:05 1010 29.83 840 24.81 4.3 39.7 53 -4.5 23.8
09:10 1010 29.83 840 24.81 4.7 40.4 52 -4.3 24.3
09:15 1011 29.85 840 24.81 4.7 40.4 53 -4.1 24.6
09:20 1011 29.85 840 24.81 4.5 40 54 -4.2 24.5
09:25 1011 29.85 840 24.81 4.4 40 54 -4.2 24.5
09:30 1011 29.85 840 24.81 4.4 40 54 -4.1 24.5
09:35 1011 29.85 840 24.81 4.3 39.8 55 -3.9 25
09:40 1011 29.85 840 24.81 4.3 39.7 55 -4.1 24.7
09:45 1011 29.85 840 24.81 4.5 40.1 54 -4.1 24.6
09:50 1011 29.85 840 24.81 4.5 40 55 -3.8 25.2
09:55 1010 29.83 840 24.81 4.6 40.3 53 -4.2 24.5
10:00 1010 29.83 839 24.78 5.1 41.2 51 -4.1 24.6
10:05 1010 29.83 839 24.78 5.3 41.6 51 -4 24.9
10:10 1010 29.83 839 24.78 5.5 41.9 50 -4.1 24.5
10:15 1010 29.83 839 24.78 6.1 43 48 -4.2 24.5
10:20 1010 29.83 840 24.81 6.6 44 49 -3.4 26
10:25 1010 29.83 840 24.81 6.5 43.8 47 -3.9 25
10:30 1011 29.85 840 24.81 6.9 44.5 47 -3.7 25.4
10:35 1011 29.85 840 24.81 6.9 44.4 46 -3.8 25.2
10:40 1011 29.85 840 24.81 7.3 45.2 44 -4 24.8
10:45 1011 29.85 840 24.81 7.7 45.8 45 -3.5 25.7
10:50 1011 29.85 840 24.81 7.8 46.1 42 -4.1 24.6
10:55 1011 29.85 840 24.81 8.6 47.4 42 -3.7 25.4
11:00 1011 29.85 840 24.81 9 48.2 41 -3.5 25.7
11:05 1011 29.85 840 24.81 9.2 48.6 41 -3.3 26
11:10 1011 29.85 840 24.81 9.5 49.1 40 -3.3 26.1
11:15 1011 29.85 840 24.81 9.9 49.8 39 -3.4 25.9
11:20 1011 29.85 840 24.81 8.8 47.9 47 -2 28.5
11:25 1011 29.85 840 24.81 7.6 45.6 48 -2.7 27.1
11:30 1011 29.85 840 24.81 7 44.5 52 -2.1 28.3
11:35 1011 29.85 840 24.81 6.4 43.5 54 -2.2 28
11:40 1011 29.85 840 24.81 5.9 42.6 59 -1.6 29.1
11:45 1011 29.85 840 24.81 5.2 41.4 58 -2.3 27.8
11:50 1011 29.85 841 24.83 4.9 40.9 60 -2.1 28.3
11:55 1011 29.85 841 24.83 4.8 40.6 59 -2.5 27.4
12:00 1011 29.85 841 24.83 5.3 41.5 58 -2.4 27.7
12:05 1011 29.85 841 24.83 5.5 41.9 58 -2.2 28.1
12:10 1011 29.85 841 24.83 5.6 42.1 56 -2.4 27.7
12:15 1012 29.88 841 24.83 5.6 42.1 57 -2.2 28.1
12:20 1012 29.88 841 24.83 5.7 42.3 57 -2.1 28.1
12:25 1012 29.88 841 24.83 5.7 42.3 58 -1.9 28.6
12:30 1012 29.88 841 24.83 5.7 42.2 59 -1.8 28.7
12:35 1012 29.88 841 24.83 5.6 42.2 60 -1.5 29.3
12:40 1012 29.88 841 24.83 5.8 42.5 61 -1.1 30.1
12:45 1012 29.88 841 24.83 5.9 42.7 62 -0.8 30.5
12:50 1012 29.88 841 24.83 6 42.9 61 -0.9 30.4
12:55 1012 29.88 841 24.83 6.1 43 62 -0.5 31
13:00 1012 29.88 841 24.83 6.1 42.9 62 -0.6 31
13:05 1012 29.88 841 24.83 5.8 42.5 64 -0.5 31
13:10 1012 29.88 841 24.83 5.5 41.9 65 -0.5 31.1
13:15 1012 29.88 842 24.86 5.2 41.3 68 -0.2 31.6
13:20 1012 29.88 842 24.86 4.9 40.7 70 -0.1 31.8
13:25 1013 29.91 842 24.86 4.4 40 73 0.1 32.1
13:30 1013 29.91 842 24.86 4 39.1 75 -0 32
13:35 1013 29.91 842 24.86 3.8 38.9 76 -0 32
13:40 1013 29.91 842 24.86 3.8 38.8 76 0 32.1
13:45 1013 29.91 842 24.86 3.8 38.8 77 0 32.1
13:50 1013 29.91 842 24.86 3.7 38.7 76 -0 31.9
13:55 1013 29.91 842 24.86 3.6 38.5 75 -0.4 31.3
14:00 1013 29.91 842 24.86 3.3 37.9 77 -0.4 31.2
14:05 1013 29.91 842 24.86 3.1 37.5 78 -0.4 31.2
14:10 1013 29.91 842 24.86 2.9 37.2 79 -0.4 31.2
14:15 1013 29.91 842 24.86 2.6 36.8 81 -0.3 31.4
14:20 1013 29.91 842 24.86 2.5 36.4 83 -0.1 31.8
14:25 1013 29.91 842 24.86 2.3 36.1 84 -0.1 31.9
14:30 1013 29.91 842 24.86 2.1 35.7 86 -0 31.9
14:35 1013 29.91 842 24.86 1.8 35.2 88 -0.1 31.9
14:40 1013 29.91 843 24.89 1.5 34.8 89 -0.1 31.7
14:45 1013 29.91 842 24.86 1.3 34.4 89 -0.2 31.6
14:50 1013 29.91 843 24.89 1.1 34 90 -0.3 31.4
14:55 1013 29.91 843 24.89 0.9 33.6 91 -0.4 31.3
15:00 1014 29.94 843 24.89 0.7 33.3 91 -0.5 31.1
15:05 1013 29.91 843 24.89 0.7 33.3 91 -0.5 31
15:10 1014 29.94 843 24.89 0.7 33.2 92 -0.5 31
15:15 1014 29.94 843 24.89 0.7 33.2 92 -0.5 31.1
15:20 1014 29.94 843 24.89 0.6 33.1 92 -0.5 31.1
15:25 1014 29.94 843 24.89 0.5 32.9 93 -0.6 31
15:30 1014 29.94 843 24.89 0.5 32.8 93 -0.6 30.9
15:35 1014 29.94 843 24.89 0.3 32.6 93 -0.7 30.8
15:40 1014 29.94 843 24.89 0.3 32.6 93 -0.7 30.8
15:45 1014 29.94 843 24.89 0.3 32.5 93 -0.7 30.8
15:50 1014 29.94 843 24.89 0.3 32.5 94 -0.7 30.8
15:55 1014 29.94 843 24.89 0.3 32.5 93 -0.7 30.8
16:00 1014 29.94 843 24.89 0.3 32.5 93 -0.7 30.8
16:05 1014 29.94 844 24.92 0.3 32.6 93 -0.7 30.8
16:10 1014 29.94 844 24.92 0.3 32.6 93 -0.6 30.9
16:15 1014 29.94 844 24.92 0.3 32.6 93 -0.6 30.9
16:20 1015 29.97 844 24.92 0.3 32.5 93 -0.6 30.9
16:25 1015 29.97 844 24.92 0.3 32.6 94 -0.6 31
16:30 1015 29.97 844 24.92 0.4 32.6 94 -0.6 31
16:35 1015 29.97 844 24.92 0.4 32.6 94 -0.5 31
16:40 1015 29.97 844 24.92 0.4 32.7 94 -0.5 31.1
16:45 1015 29.97 844 24.92 0.3 32.6 94 -0.5 31
16:50 1015 29.97 844 24.92 0.3 32.5 94 -0.6 31
16:55 1015 29.97 844 24.92 0.3 32.5 94 -0.5 31
17:00 1015 29.97 844 24.92 0.3 32.6 94 -0.5 31
17:05 1015 29.97 844 24.92 0.3 32.6 94 -0.5 31.1
17:10 1015 29.97 844 24.92 0.3 32.6 94 -0.5 31
17:15 1015 29.97 844 24.92 0.3 32.6 94 -0.6 31
17:20 1015 29.97 845 24.95 0.3 32.5 94 -0.6 30.9
17:25 1015 29.97 845 24.95 0.3 32.5 94 -0.6 30.9
17:30 1015 29.97 845 24.95 0.3 32.5 94 -0.6 30.9
17:35 1015 29.97 845 24.95 0.3 32.5 94 -0.6 30.9
17:40 1016 30 845 24.95 0.3 32.5 94 -0.6 30.9
17:45 1016 30 845 24.95 0.2 32.4 94 -0.7 30.8
17:50 1016 30 845 24.95 0.2 32.4 94 -0.6 30.9
17:55 1016 30 845 24.95 0.2 32.4 94 -0.6 30.9
18:00 1016 30 845 24.95 0.2 32.4 94 -0.6 30.9
18:05 1016 30 845 24.95 0.2 32.4 94 -0.6 30.9
18:10 1016 30 845 24.95 0.2 32.4 95 -0.6 31
18:15 1016 30 845 24.95 0.2 32.3 95 -0.6 31
18:20 1016 30 845 24.95 0.2 32.3 95 -0.6 30.9
18:25 1016 30 845 24.95 0.2 32.3 95 -0.6 31
18:30 1016 30 845 24.95 0.1 32.2 95 -0.6 30.9
18:35 1016 30 845 24.95 0.1 32.2 95 -0.6 30.9
18:40 1016 30 845 24.95 0.1 32.2 95 -0.6 30.9
18:45 1016 30 845 24.95 0.1 32.2 95 -0.6 30.9
18:50 1016 30 845 24.95 0.1 32.1 95 -0.7 30.8
18:55 1016 30 845 24.95 0.1 32.1 95 -0.7 30.8
19:00 1016 30 845 24.95 0 32.1 95 -0.7 30.8
19:05 1016 30 845 24.95 0 32 95 -0.7 30.8
19:10 1016 30 845 24.95 -0 32 95 -0.8 30.6
19:15 1016 30 845 24.95 -0 32 95 -0.7 30.7
19:20 1016 30 845 24.95 -0 32 95 -0.7 30.7
19:25 1016 30 845 24.95 -0 32 95 -0.8 30.6
19:30 1016 30 846 24.98 -0.1 31.9 95 -0.8 30.5
19:35 1016 30 846 24.98 -0.1 31.8 95 -0.8 30.5
19:40 1016 30 846 24.98 -0.1 31.8 95 -0.9 30.5
19:45 1016 30 846 24.98 -0.2 31.7 95 -0.9 30.3
19:50 1016 30 846 24.98 -0.2 31.6 95 -0.9 30.3
19:55 1016 30 846 24.98 -0.2 31.6 95 -0.9 30.3
20:00 1016 30 846 24.98 -0.2 31.6 95 -1 30.2
20:05 1016 30 846 24.98 -0.2 31.6 95 -1 30.2
20:10 1017 30.03 846 24.98 -0.3 31.4 94 -1.1 30
20:15 1017 30.03 846 24.98 -0.4 31.4 95 -1.1 30
20:20 1017 30.03 846 24.98 -0.3 31.4 94 -1.1 30
20:25 1017 30.03 846 24.98 -0.3 31.4 95 -1.1 30
20:30 1017 30.03 846 24.98 -0.3 31.4 95 -1.1 30.1
20:35 1017 30.03 846 24.98 -0.3 31.5 95 -1.1 30.1
20:40 1017 30.03 846 24.98 -0.3 31.4 95 -1.1 30.1
20:45 1017 30.03 846 24.98 -0.3 31.5 95 -1 30.2
20:50 1017 30.03 846 24.98 -0.3 31.5 95 -1 30.2
20:55 1017 30.03 846 24.98 -0.3 31.5 95 -1 30.2
21:00 1017 30.03 846 24.98 -0.3 31.4 95 -1 30.2
21:05 1017 30.03 846 24.98 -0.3 31.4 95 -1 30.2
21:10 1017 30.03 846 24.98 -0.4 31.3 96 -1 30.2
21:15 1017 30.03 846 24.98 -0.4 31.3 95 -1 30.2
21:20 1017 30.03 846 24.98 -0.4 31.3 95 -1 30.2
21:25 1017 30.03 846 24.98 -0.4 31.3 95 -1 30.2
21:30 1017 30.03 846 24.98 -0.4 31.3 96 -1 30.2
21:35 1017 30.03 846 24.98 -0.4 31.3 96 -1 30.1
21:40 1017 30.03 846 24.98 -0.4 31.3 96 -1 30.2
21:45 1017 30.03 847 25.01 -0.4 31.3 96 -1 30.2
21:50 1017 30.03 847 25.01 -0.4 31.3 96 -1 30.2
21:55 1017 30.03 847 25.01 -0.4 31.3 96 -1 30.2
22:00 1017 30.03 846 24.98 -0.4 31.3 96 -1 30.2
22:05 1017 30.03 846 24.98 -0.4 31.3 95 -1 30.1
22:10 1017 30.03 846 24.98 -0.4 31.3 95 -1 30.1
22:15 1017 30.03 846 24.98 -0.5 31.2 95 -1.1 30
22:20 1017 30.03 847 25.01 -0.5 31.2 96 -1.1 30
22:25 1017 30.03 847 25.01 -0.5 31.1 95 -1.1 30
22:30 1017 30.03 847 25.01 -0.5 31.1 95 -1.2 29.9
22:35 1018 30.06 847 25.01 -0.6 31 96 -1.2 29.8
22:40 1018 30.06 847 25.01 -0.6 30.9 95 -1.3 29.7
22:45 1018 30.06 847 25.01 -0.6 30.9 96 -1.2 29.8
22:50 1018 30.06 847 25.01 -0.6 30.9 95 -1.3 29.7
22:55 1018 30.06 847 25.01 -0.6 31 95 -1.2 29.8
23:00 1018 30.06 847 25.01 -0.6 30.9 95 -1.3 29.7
23:05 1018 30.06 847 25.01 -0.6 31 95 -1.2 29.8
23:10 1017 30.03 847 25.01 -0.6 31 95 -1.3 29.7
23:15 1017 30.03 847 25.01 -0.6 31 95 -1.2 29.8
23:20 1017 30.03 847 25.01 -0.6 31 95 -1.3 29.7
23:25 1018 30.06 847 25.01 -0.5 31 95 -1.2 29.9
23:30 1018 30.06 847 25.01 -0.5 31 95 -1.2 29.8
23:35 1018 30.06 847 25.01 -0.6 31 95 -1.3 29.7
23:40 1018 30.06 847 25.01 -0.6 30.9 95 -1.3 29.7
23:45 1018 30.06 847 25.01 -0.6 30.8 95 -1.3 29.6
23:50 1018 30.06 847 25.01 -0.6 30.9 95 -1.3 29.7
23:55 1018 30.06 847 25.01 -0.6 31 95 -1.3 29.7
24:00 1018 30.06 847 25.01 -0.6 31 95 -1.2 29.8